Middle Village, NY (11379)

4:16 AM EDT on October 24, 2014 (GMT -0400)
Juniper Valley Park | Change Station
CLOSE
Current Station
Personal Weather Station
Location: Queens, NY
Elevation: 32 m
Nearby Weather Stations

Elev 32 m 40.72 °N, 73.89 °W | Updated 122 days ago

Mostly Cloudy
Mostly Cloudy
10 °C
Feels Like 10 °C
N
22
Wind Variable Wind from NW
Gusts 26 km/h

Today
High -- | Low -- °C
--% Chance of Precip.
Yesterday
High -- | Low -- °C
Precip. -- mm
7:16 AM 6:02 PM
New Moon, 0% visible
Pressure 1008 hPa
Visibility 16.1 kilometers
Clouds Few 1188 m
Overcast 1828 m
Dew Point 6 °C
Humidity 77%
Rainfall 0 mm
Snow Depth Not available.
UV 0 out of 12
Pollen .30 out of 12
Air Quality Not available.
Flu Activity Sporadic
METAR KLGA 240751Z 32015KT 10SM FEW039 OVC060 11/07 A2977 RMK AO2 SLP082 T01110067

More Conditions Fewer Conditions

Pressure 1008 hPa
Visibility 16.1 kilometers
Clouds Few 1188 m
Overcast 1828 m
Dew Point 6 °C
Humidity 77%
Rainfall 0 mm
Snow Depth Not available.
UV 0 out of 12
Pollen .30 out of 12
Air Quality Not available.
Flu Activity Sporadic
METAR KLGA 240751Z 32015KT 10SM FEW039 OVC060 11/07 A2977 RMK AO2 SLP082 T01110067

More Conditions Fewer Conditions

10-Day Weather Forecast

Almanac

Astronomy

Oct. 24, 2014 Rise Set
Actual Time 7:16 AM EDT 6:02 PM EDT
Civil Twilight 6:48 AM EDT 6:30 PM EDT
Nautical Twilight 6:16 AM EDT 7:02 PM EDT
Astronomical Twilight 5:44 AM EDT 7:33 PM EDT
Moon 7:53 AM EDT 6:40 PM EDT
Length of Visible Light 11h 41m
Length of Day
10h 45m
Tomorrow will be 2m 30s shorter.
New Moon, 0% of the Moon is Illuminated
Today
New Moon
Oct 30
First Quarter
Nov 6
Full
Nov 14
Last Quarter
Nov 22
New

Today's Extremes

State Highs State Lows

Community

WunderPhotos

Upload Photos

1,764,511 photos uploaded!

WunderBlogs® & News

Nearby

Snow Depth

Station Depth Elevation
No new snow has been reported.

Earthquake Activity

City Distance Mag. Time & Date
No recent earthquake activity has been reported nearby.
Minimum magnitude displayed is 2.5.

Coastal Water Temperatures

Place Temperature
Sandy Hook, NJ 14.4 °C
The Battery, NY 16.7 °C
Bergen Point West Reach, NJ 15.6 °C
Kings Point, NY 14.4 °C

Nearby Weather Stations